createdAt,value
2023-06-14T00:01:48.326Z,20.98
2023-06-14T00:04:19.656Z,21.08
2023-06-14T00:06:49.732Z,21.14
2023-06-14T00:09:18.694Z,21.18
2023-06-14T00:11:45.142Z,21.19
2023-06-14T00:14:11.493Z,21.13
2023-06-14T00:16:39.765Z,21.03
2023-06-14T00:19:06.181Z,20.94
2023-06-14T00:21:32.780Z,20.98
2023-06-14T00:23:59.170Z,21.01
2023-06-14T00:26:27.150Z,21.03
2023-06-14T00:28:53.781Z,21.09
2023-06-14T00:31:20.129Z,20.92
2023-06-14T00:33:46.576Z,20.98
2023-06-14T00:36:12.944Z,21.03
2023-06-14T00:38:39.270Z,20.81
2023-06-14T00:41:05.615Z,20.44
2023-06-14T00:43:32.211Z,20.40
2023-06-14T00:45:58.784Z,20.50
2023-06-14T00:48:25.192Z,20.44
2023-06-14T00:50:52.414Z,20.57
2023-06-14T00:53:18.790Z,20.68
2023-06-14T00:55:45.189Z,20.48
2023-06-14T00:58:11.946Z,20.34
2023-06-14T01:00:38.301Z,20.32
2023-06-14T01:03:04.667Z,20.48
2023-06-14T01:05:31.561Z,20.59
2023-06-14T01:08:12.655Z,20.60
2023-06-14T01:10:43.668Z,20.41
2023-06-14T01:13:18.884Z,20.44
2023-06-14T01:15:45.389Z,20.58
2023-06-14T01:18:18.447Z,20.64
2023-06-14T01:20:51.727Z,20.57
2023-06-14T01:23:18.459Z,20.49
2023-06-14T01:25:45.525Z,20.38
2023-06-14T01:28:12.425Z,20.35
2023-06-14T01:30:48.805Z,20.17
2023-06-14T01:33:15.637Z,19.94
2023-06-14T01:35:43.539Z,19.97
2023-06-14T01:38:09.891Z,20.07
2023-06-14T01:40:36.238Z,19.91
2023-06-14T01:43:02.573Z,19.60
2023-06-14T01:45:28.959Z,19.49
2023-06-14T01:47:55.963Z,19.40
2023-06-14T01:50:22.318Z,19.37
2023-06-14T01:52:48.662Z,19.35
2023-06-14T01:55:15.004Z,19.30
2023-06-14T01:57:41.607Z,19.31
2023-06-14T02:00:11.666Z,19.49
2023-06-14T02:02:38.294Z,19.54
2023-06-14T02:05:05.060Z,19.52
2023-06-14T02:07:31.504Z,19.43
2023-06-14T02:09:57.903Z,19.12
2023-06-14T02:12:24.236Z,19.02
2023-06-14T02:14:51.014Z,19.02
2023-06-14T02:17:17.402Z,18.99
2023-06-14T02:19:43.816Z,18.95
2023-06-14T02:22:10.241Z,18.85
2023-06-14T02:24:36.655Z,18.81
2023-06-14T02:27:03.143Z,18.80
2023-06-14T02:29:29.482Z,18.43
2023-06-14T02:31:55.856Z,18.27
2023-06-14T02:34:23.081Z,18.47
2023-06-14T02:36:49.667Z,18.70
2023-06-14T02:39:16.076Z,18.78
2023-06-14T02:41:42.504Z,18.71
2023-06-14T02:44:09.063Z,18.71
2023-06-14T02:46:35.562Z,18.68
2023-06-14T02:49:02.057Z,18.54
2023-06-14T02:51:28.442Z,18.53
2023-06-14T02:53:54.766Z,18.62
2023-06-14T02:56:21.151Z,18.62
2023-06-14T02:58:49.678Z,18.51
2023-06-14T03:01:16.121Z,18.35
2023-06-14T03:03:42.540Z,18.30
2023-06-14T03:06:09.202Z,18.23
2023-06-14T03:08:39.718Z,18.34
2023-06-14T03:11:06.688Z,18.31
2023-06-14T03:13:33.473Z,18.24
2023-06-14T03:16:03.159Z,18.41
2023-06-14T03:18:36.263Z,18.65
2023-06-14T03:21:03.582Z,18.74
2023-06-14T03:23:30.000Z,18.72
2023-06-14T03:25:57.183Z,18.59
2023-06-14T03:28:23.681Z,18.39
2023-06-14T03:30:50.107Z,18.33
2023-06-14T03:33:16.592Z,18.35
2023-06-14T03:35:42.942Z,18.32
2023-06-14T03:38:09.281Z,18.37
2023-06-14T03:40:35.863Z,18.36
2023-06-14T03:43:02.189Z,18.34
2023-06-14T03:45:28.521Z,18.35
2023-06-14T03:47:55.718Z,18.50
2023-06-14T03:50:22.204Z,18.36
2023-06-14T03:52:49.829Z,18.21
2023-06-14T03:57:46.413Z,18.03
2023-06-14T04:00:13.700Z,18.03
2023-06-14T04:02:40.174Z,17.96
2023-06-14T04:05:09.569Z,17.89
2023-06-14T04:07:40.879Z,17.92
2023-06-14T04:10:07.836Z,17.94
2023-06-14T04:12:34.211Z,17.89
2023-06-14T04:15:11.853Z,17.79
2023-06-14T04:17:46.146Z,17.77
2023-06-14T04:20:12.540Z,17.82
2023-06-14T04:22:38.870Z,17.88
2023-06-14T04:25:07.441Z,17.91
2023-06-14T04:27:35.310Z,17.82
2023-06-14T04:30:04.328Z,18.09
2023-06-14T04:32:34.696Z,18.39
2023-06-14T04:35:03.178Z,18.55
2023-06-14T04:37:31.228Z,18.74
2023-06-14T04:39:57.829Z,18.94
2023-06-14T04:42:26.210Z,19.02
2023-06-14T04:44:52.905Z,19.01
2023-06-14T04:47:19.258Z,18.97
2023-06-14T04:49:45.763Z,18.88
2023-06-14T04:52:13.987Z,18.77
2023-06-14T04:54:43.024Z,18.70
2023-06-14T04:57:10.252Z,18.69
2023-06-14T04:59:36.723Z,18.61
2023-06-14T05:02:03.175Z,18.61
2023-06-14T05:04:29.983Z,18.58
2023-06-14T05:06:56.287Z,18.49
2023-06-14T05:09:22.626Z,18.62
2023-06-14T05:11:48.953Z,18.75
2023-06-14T05:14:15.359Z,18.96
2023-06-14T05:16:41.709Z,19.12
2023-06-14T05:19:08.125Z,19.26
2023-06-14T05:21:41.544Z,19.40
2023-06-14T05:24:10.405Z,19.79
2023-06-14T05:26:36.836Z,20.09
2023-06-14T05:29:03.828Z,20.55
2023-06-14T05:31:30.200Z,20.68
2023-06-14T05:33:56.719Z,20.67
2023-06-14T05:36:23.174Z,20.49
2023-06-14T05:38:49.556Z,20.45
2023-06-14T05:41:16.005Z,20.25
2023-06-14T05:43:42.376Z,20.34
2023-06-14T05:46:08.722Z,20.34
2023-06-14T05:48:35.060Z,20.57
2023-06-14T05:51:01.647Z,20.83
2023-06-14T05:53:28.024Z,20.64
2023-06-14T05:55:55.887Z,21.32
2023-06-14T05:58:22.922Z,21.33
2023-06-14T06:00:49.241Z,21.42
2023-06-14T06:03:15.696Z,21.63
2023-06-14T06:05:42.154Z,21.52
2023-06-14T06:08:08.512Z,21.56
2023-06-14T06:10:34.859Z,21.59
2023-06-14T06:13:01.290Z,21.67
2023-06-14T06:15:27.727Z,21.61
2023-06-14T06:17:56.647Z,21.51
2023-06-14T06:20:29.194Z,21.46
2023-06-14T06:22:56.383Z,21.36
2023-06-14T06:25:23.373Z,21.48
2023-06-14T06:27:49.731Z,21.33
2023-06-14T06:30:16.654Z,21.31
2023-06-14T06:32:43.001Z,21.22
2023-06-14T06:35:11.869Z,21.35
2023-06-14T06:37:38.223Z,21.61
2023-06-14T06:40:07.009Z,21.23
2023-06-14T06:42:33.540Z,21.21
2023-06-14T06:44:59.880Z,21.02
2023-06-14T06:47:26.408Z,21.08
2023-06-14T06:49:53.310Z,21.40
2023-06-14T06:52:19.624Z,21.38
2023-06-14T06:54:46.201Z,21.36
2023-06-14T06:57:12.592Z,21.02
2023-06-14T06:59:38.947Z,21.30
2023-06-14T07:02:05.917Z,21.30
2023-06-14T07:04:32.386Z,21.34
2023-06-14T07:06:58.792Z,21.06
2023-06-14T07:09:25.552Z,20.79
2023-06-14T07:11:51.987Z,20.63
2023-06-14T07:14:18.344Z,20.81
2023-06-14T07:16:44.996Z,20.72
2023-06-14T07:19:11.460Z,20.40
2023-06-14T07:21:40.520Z,20.67
2023-06-14T07:24:07.639Z,20.31
2023-06-14T07:26:34.096Z,20.56
2023-06-14T07:29:00.417Z,20.70
2023-06-14T07:31:27.523Z,20.66
2023-06-14T07:33:54.083Z,21.09
2023-06-14T07:36:20.517Z,20.88
2023-06-14T07:38:47.047Z,20.65
2023-06-14T07:41:13.383Z,20.95
2023-06-14T07:43:39.735Z,20.59
2023-06-14T07:46:08.127Z,20.65
2023-06-14T07:48:35.253Z,20.96
2023-06-14T07:51:02.392Z,20.69
2023-06-14T07:53:28.970Z,20.71
2023-06-14T07:55:55.470Z,20.67
2023-06-14T07:58:21.841Z,21.04
2023-06-14T08:00:48.367Z,20.91
2023-06-14T08:03:15.271Z,21.06
2023-06-14T08:05:41.747Z,20.94
2023-06-14T08:08:08.068Z,20.78
2023-06-14T08:10:34.425Z,20.67
2023-06-14T08:13:00.781Z,20.52
2023-06-14T08:15:27.105Z,20.57
2023-06-14T08:17:53.536Z,21.04
2023-06-14T08:20:19.923Z,21.29
2023-06-14T08:22:47.657Z,20.78
2023-06-14T08:25:14.958Z,20.59
2023-06-14T08:27:41.743Z,20.42
2023-06-14T08:30:09.277Z,20.14
2023-06-14T08:32:35.928Z,20.25
2023-06-14T08:35:05.776Z,20.31
2023-06-14T08:37:34.369Z,20.60
2023-06-14T08:40:00.801Z,20.92
2023-06-14T08:42:32.122Z,20.89
2023-06-14T08:44:59.049Z,20.90
2023-06-14T08:47:26.439Z,20.92
2023-06-14T08:49:53.596Z,20.94
2023-06-14T08:52:21.065Z,20.73
2023-06-14T08:54:49.710Z,20.41
2023-06-14T08:57:17.996Z,20.55
2023-06-14T08:59:47.785Z,20.32
2023-06-14T09:02:15.623Z,20.70
2023-06-14T09:04:42.431Z,20.89
2023-06-14T09:07:10.853Z,20.89
2023-06-14T09:09:39.601Z,21.33
2023-06-14T09:12:07.526Z,21.58
2023-06-14T09:14:36.212Z,21.26
2023-06-14T09:17:02.655Z,21.28
2023-06-14T09:19:29.016Z,21.19
2023-06-14T09:21:56.603Z,21.28
2023-06-14T09:24:24.806Z,21.40
2023-06-14T09:26:54.202Z,21.49
2023-06-14T09:29:20.610Z,21.36
2023-06-14T09:31:47.383Z,21.64
2023-06-14T09:34:13.877Z,21.28
2023-06-14T09:36:40.644Z,21.53
2023-06-14T09:39:08.152Z,21.60
2023-06-14T09:41:34.933Z,21.54
2023-06-14T09:44:01.621Z,21.30
2023-06-14T09:46:28.134Z,21.17
2023-06-14T09:48:54.613Z,21.42
2023-06-14T09:51:21.701Z,21.35
2023-06-14T09:53:48.479Z,21.55
2023-06-14T09:56:14.838Z,21.56
2023-06-14T09:58:41.560Z,22.04
2023-06-14T10:01:08.082Z,22.39
2023-06-14T10:03:49.892Z,21.75
2023-06-14T10:06:22.134Z,21.31
2023-06-14T10:08:48.493Z,21.34
2023-06-14T10:11:14.860Z,21.60
2023-06-14T10:13:41.266Z,21.24
2023-06-14T10:16:14.040Z,21.43
2023-06-14T10:18:49.198Z,21.85
2023-06-14T10:21:37.259Z,22.07
2023-06-14T10:24:04.740Z,21.92
2023-06-14T10:26:31.274Z,22.02
2023-06-14T10:28:59.224Z,21.86
2023-06-14T10:31:40.601Z,21.79
2023-06-14T10:34:06.959Z,21.67
2023-06-14T10:36:35.215Z,21.82
2023-06-14T10:39:03.493Z,21.97
2023-06-14T10:41:30.106Z,21.79
2023-06-14T10:44:14.866Z,21.72
2023-06-14T10:46:43.466Z,21.65
2023-06-14T10:49:11.537Z,22.23
2023-06-14T10:51:47.404Z,22.40
2023-06-14T10:54:16.796Z,22.42
2023-06-14T10:56:49.674Z,22.25
2023-06-14T10:59:16.392Z,22.34
2023-06-14T11:01:48.363Z,22.50
2023-06-14T11:04:14.857Z,22.59
2023-06-14T11:06:46.585Z,22.73
2023-06-14T11:11:39.850Z,22.86
2023-06-14T11:14:06.215Z,22.38
2023-06-14T11:16:34.322Z,22.92
2023-06-14T11:19:06.575Z,22.36
2023-06-14T11:21:34.193Z,22.06
2023-06-14T11:24:00.710Z,22.44
2023-06-14T11:26:28.230Z,22.32
2023-06-14T11:28:58.440Z,22.15
2023-06-14T11:31:25.031Z,22.51
2023-06-14T11:33:51.799Z,22.89
2023-06-14T11:36:18.154Z,22.95
2023-06-14T11:38:44.879Z,22.97
2023-06-14T11:41:11.382Z,23.00
2023-06-14T11:43:38.411Z,23.44
2023-06-14T11:46:08.274Z,23.01
2023-06-14T11:48:38.620Z,22.75
2023-06-14T11:51:04.983Z,22.78
2023-06-14T11:53:31.824Z,23.14
2023-06-14T11:55:58.604Z,23.47
2023-06-14T11:58:25.016Z,22.98
2023-06-14T12:00:51.634Z,23.40
2023-06-14T12:03:18.122Z,23.31
2023-06-14T12:05:44.827Z,23.09
2023-06-14T12:08:11.687Z,23.11
2023-06-14T12:10:42.084Z,23.14
2023-06-14T12:13:08.441Z,23.53
2023-06-14T12:15:35.430Z,23.42
2023-06-14T12:18:02.281Z,23.71
2023-06-14T12:20:32.399Z,23.87
2023-06-14T12:23:03.777Z,23.75
2023-06-14T12:25:33.885Z,23.69
2023-06-14T12:28:00.644Z,23.59
2023-06-14T12:30:26.963Z,23.58
2023-06-14T12:32:53.409Z,23.15
2023-06-14T12:35:20.048Z,23.48
2023-06-14T12:37:46.750Z,23.51
2023-06-14T12:40:13.356Z,23.44
2023-06-14T12:42:39.769Z,23.80
2023-06-14T12:45:06.595Z,23.74
2023-06-14T12:47:33.175Z,23.82
2023-06-14T12:49:59.551Z,23.81
2023-06-14T12:52:26.036Z,23.73
2023-06-14T12:54:52.436Z,24.10
2023-06-14T12:57:18.778Z,24.04
2023-06-14T12:59:45.143Z,24.36
2023-06-14T13:02:14.883Z,24.56
2023-06-14T13:04:41.368Z,24.35
2023-06-14T13:07:07.717Z,24.51
2023-06-14T13:09:34.061Z,24.42
2023-06-14T13:12:00.439Z,24.43
2023-06-14T13:14:27.061Z,24.51
2023-06-14T13:16:53.562Z,24.86
2023-06-14T13:19:20.047Z,24.53
2023-06-14T13:21:46.434Z,24.52
2023-06-14T13:24:12.807Z,24.67
2023-06-14T13:26:39.198Z,24.38
2023-06-14T13:29:05.528Z,24.05
2023-06-14T13:31:32.010Z,24.09
2023-06-14T13:33:58.515Z,23.67
2023-06-14T13:36:24.879Z,23.57
2023-06-14T13:38:53.601Z,23.85
2023-06-14T13:41:19.970Z,23.67
2023-06-14T13:43:46.395Z,23.55
2023-06-14T13:46:12.809Z,23.94
2023-06-14T13:48:39.208Z,24.36
2023-06-14T13:51:05.622Z,24.38
2023-06-14T13:53:32.183Z,24.52
2023-06-14T13:55:58.515Z,24.63
2023-06-14T13:58:25.128Z,24.44
2023-06-14T14:00:51.486Z,24.91
2023-06-14T14:03:17.872Z,24.26
2023-06-14T14:05:44.216Z,23.93
2023-06-14T14:08:10.723Z,24.11
2023-06-14T14:10:37.188Z,24.53
2023-06-14T14:13:03.495Z,24.50
2023-06-14T14:15:30.124Z,25.05
2023-06-14T14:17:58.378Z,25.27
2023-06-14T14:20:24.802Z,25.38
2023-06-14T14:22:51.117Z,24.99
2023-06-14T14:25:17.449Z,24.66
2023-06-14T14:27:43.853Z,24.84
2023-06-14T14:30:10.416Z,24.55
2023-06-14T14:32:36.810Z,24.05
2023-06-14T14:35:03.216Z,23.75
2023-06-14T14:37:29.590Z,23.87
2023-06-14T14:39:56.083Z,23.87
2023-06-14T14:42:22.504Z,23.96
2023-06-14T14:44:48.874Z,23.87
2023-06-14T14:47:15.487Z,23.80
2023-06-14T14:49:42.826Z,23.89
2023-06-14T14:54:41.252Z,23.80
2023-06-14T14:57:07.826Z,24.06
2023-06-14T14:59:34.170Z,24.19
2023-06-14T15:02:00.522Z,24.36
2023-06-14T15:04:26.898Z,24.93
2023-06-14T15:06:53.343Z,25.24
2023-06-14T15:09:19.689Z,25.22
2023-06-14T15:11:46.129Z,25.51
2023-06-14T15:14:12.591Z,25.49
2023-06-14T15:16:38.986Z,25.66
2023-06-14T15:19:05.338Z,25.27
2023-06-14T15:21:31.748Z,24.87
2023-06-14T15:23:58.101Z,25.14
2023-06-14T15:26:25.427Z,25.55
2023-06-14T15:28:51.975Z,25.32
2023-06-14T15:31:18.331Z,25.66
2023-06-14T15:33:44.681Z,25.57
2023-06-14T15:36:12.855Z,25.47
2023-06-14T15:38:39.223Z,25.81
2023-06-14T15:41:05.742Z,25.95
2023-06-14T15:43:32.094Z,26.20
2023-06-14T15:45:58.644Z,25.92
2023-06-14T15:48:25.068Z,25.62
2023-06-14T15:50:51.449Z,25.82
2023-06-14T15:53:17.881Z,25.56
2023-06-14T15:55:44.202Z,25.06
2023-06-14T15:58:10.534Z,25.19
2023-06-14T16:00:36.868Z,25.11
2023-06-14T16:03:03.280Z,25.33
2023-06-14T16:05:29.734Z,25.28
2023-06-14T16:07:56.067Z,25.58
2023-06-14T16:10:22.426Z,25.82
2023-06-14T16:12:48.772Z,25.49
2023-06-14T16:15:15.971Z,24.84
2023-06-14T16:17:43.672Z,25.28
2023-06-14T16:20:10.323Z,25.44
2023-06-14T16:22:37.177Z,25.59
2023-06-14T16:25:03.761Z,25.66
2023-06-14T16:27:30.112Z,25.88
2023-06-14T16:29:56.636Z,25.46
2023-06-14T16:32:23.078Z,25.51
2023-06-14T16:34:49.505Z,25.88
2023-06-14T16:37:15.895Z,25.97
2023-06-14T16:39:42.226Z,25.95
2023-06-14T16:42:08.642Z,26.07
2023-06-14T16:44:35.005Z,25.79
2023-06-14T16:47:02.947Z,25.90
2023-06-14T16:49:29.403Z,25.93
2023-06-14T16:51:55.867Z,25.60
2023-06-14T16:54:22.232Z,25.88
2023-06-14T16:56:50.489Z,25.79
2023-06-14T16:59:18.097Z,25.86
2023-06-14T17:01:44.504Z,25.96
2023-06-14T17:04:11.120Z,25.93
2023-06-14T17:06:37.512Z,25.95
2023-06-14T17:09:03.862Z,26.09
2023-06-14T17:11:30.220Z,26.13
2023-06-14T17:13:56.583Z,26.06
2023-06-14T17:16:23.013Z,26.23
2023-06-14T17:18:49.442Z,25.94
2023-06-14T17:21:15.800Z,26.06
2023-06-14T17:23:42.242Z,26.09
2023-06-14T17:26:08.590Z,25.83
2023-06-14T17:28:35.301Z,25.51
2023-06-14T17:31:01.729Z,25.26
2023-06-14T17:33:28.073Z,25.34
2023-06-14T17:35:54.420Z,25.44
2023-06-14T17:38:20.735Z,25.54
2023-06-14T17:40:51.021Z,25.69
2023-06-14T17:43:17.916Z,25.78
2023-06-14T17:45:44.352Z,25.72
2023-06-14T17:48:10.835Z,25.50
2023-06-14T17:50:39.950Z,25.41
2023-06-14T17:53:06.850Z,25.60
2023-06-14T17:55:34.626Z,24.81
2023-06-14T17:58:01.192Z,24.75
2023-06-14T18:00:27.539Z,24.94
2023-06-14T18:02:53.909Z,25.12
2023-06-14T18:05:20.345Z,24.95
2023-06-14T18:07:46.868Z,25.11
2023-06-14T18:10:15.705Z,25.00
2023-06-14T18:12:42.205Z,24.91
2023-06-14T18:15:08.746Z,24.99
2023-06-14T18:17:35.220Z,25.09
2023-06-14T18:20:03.090Z,25.18
2023-06-14T18:22:29.472Z,25.21
2023-06-14T18:24:55.894Z,25.27
2023-06-14T18:27:22.290Z,25.20
2023-06-14T18:29:49.118Z,25.18
2023-06-14T18:32:15.561Z,25.17
2023-06-14T18:34:41.901Z,24.30
2023-06-14T18:37:08.245Z,24.43
2023-06-14T18:39:34.688Z,24.55
2023-06-14T18:42:01.149Z,24.57
2023-06-14T18:44:27.526Z,24.45
2023-06-14T18:46:53.955Z,24.60
2023-06-14T18:49:20.289Z,24.71
2023-06-14T18:51:47.187Z,24.17
2023-06-14T18:54:13.567Z,24.20
2023-06-14T18:56:39.902Z,24.28
2023-06-14T18:59:06.461Z,24.38
2023-06-14T19:01:32.892Z,24.26
2023-06-14T19:03:59.892Z,24.17
2023-06-14T19:06:26.743Z,24.20
2023-06-14T19:08:53.290Z,24.06
2023-06-14T19:11:19.907Z,24.00
2023-06-14T19:13:46.324Z,23.74
2023-06-14T19:16:12.787Z,23.64
2023-06-14T19:18:39.229Z,23.58
2023-06-14T19:21:05.781Z,23.80
2023-06-14T19:23:33.939Z,23.83
2023-06-14T19:26:00.255Z,23.69
2023-06-14T19:28:27.918Z,23.31
2023-06-14T19:30:54.504Z,23.15
2023-06-14T19:33:20.847Z,23.27
2023-06-14T19:35:47.171Z,23.40
2023-06-14T19:38:14.035Z,23.26
2023-06-14T19:40:40.702Z,23.24
2023-06-14T19:43:07.653Z,23.24
2023-06-14T19:45:34.137Z,23.24
2023-06-14T19:48:10.973Z,23.18
2023-06-14T19:50:45.084Z,23.28
2023-06-14T19:53:11.479Z,22.97
2023-06-14T19:55:37.814Z,22.82
2023-06-14T19:58:04.271Z,22.92
2023-06-14T20:00:30.676Z,23.11
2023-06-14T20:02:57.219Z,23.04
2023-06-14T20:05:23.634Z,23.06
2023-06-14T20:07:50.405Z,23.02
2023-06-14T20:10:16.739Z,23.00
2023-06-14T20:12:43.090Z,22.89
2023-06-14T20:15:09.855Z,22.93
2023-06-14T20:17:36.287Z,22.83
2023-06-14T20:20:02.719Z,22.82
2023-06-14T20:22:29.077Z,22.87
2023-06-14T20:24:55.399Z,22.97
2023-06-14T20:27:21.974Z,23.05
2023-06-14T20:29:48.294Z,23.11
2023-06-14T20:32:15.657Z,23.04
2023-06-14T20:34:42.114Z,22.89
2023-06-14T20:37:08.479Z,22.98
2023-06-14T20:39:34.832Z,22.93
2023-06-14T20:42:01.330Z,22.91
2023-06-14T20:44:30.138Z,22.78
2023-06-14T20:46:58.222Z,22.91
2023-06-14T20:49:25.064Z,22.79
2023-06-14T20:51:53.668Z,22.75
2023-06-14T20:54:20.512Z,22.73
2023-06-14T20:56:46.837Z,22.50
2023-06-14T20:59:13.169Z,22.21
2023-06-14T21:01:40.082Z,21.94
2023-06-14T21:04:06.602Z,21.73
2023-06-14T21:06:33.598Z,21.26
2023-06-14T21:08:59.996Z,21.17
2023-06-14T21:11:26.885Z,21.20
2023-06-14T21:13:53.638Z,21.36
2023-06-14T21:16:20.058Z,21.27
2023-06-14T21:18:46.465Z,21.04
2023-06-14T21:21:12.856Z,20.93
2023-06-14T21:23:39.188Z,21.09
2023-06-14T21:26:05.564Z,20.72
2023-06-14T21:28:31.918Z,20.71
2023-06-14T21:30:58.390Z,20.54
2023-06-14T21:33:24.741Z,20.48
2023-06-14T21:35:51.349Z,20.33
2023-06-14T21:38:17.723Z,20.26
2023-06-14T21:40:44.270Z,20.18
2023-06-14T21:43:10.626Z,20.09
2023-06-14T21:45:37.198Z,20.09
2023-06-14T21:48:03.641Z,20.30
2023-06-14T21:50:31.573Z,20.28
2023-06-14T21:52:57.938Z,20.21
2023-06-14T21:55:24.532Z,20.20
2023-06-14T21:57:51.274Z,19.90
2023-06-14T22:00:17.972Z,20.01
2023-06-14T22:02:44.581Z,20.16
2023-06-14T22:05:10.935Z,20.05
2023-06-14T22:07:37.265Z,19.84
2023-06-14T22:10:03.654Z,19.76
2023-06-14T22:12:30.394Z,19.63
2023-06-14T22:14:57.051Z,19.65
2023-06-14T22:17:23.838Z,19.54
2023-06-14T22:19:53.344Z,19.56
2023-06-14T22:22:26.110Z,19.85
2023-06-14T22:24:55.821Z,20.16
2023-06-14T22:27:22.604Z,19.94
2023-06-14T22:29:49.272Z,20.11
2023-06-14T22:32:15.942Z,20.09
2023-06-14T22:34:42.380Z,19.95
2023-06-14T22:37:09.035Z,19.94
2023-06-14T22:39:35.405Z,19.89
2023-06-14T22:42:07.460Z,19.84
2023-06-14T22:44:34.957Z,20.17
2023-06-14T22:47:01.534Z,20.09
2023-06-14T22:49:31.926Z,19.80
2023-06-14T22:52:02.232Z,19.50
2023-06-14T22:54:31.393Z,19.62
2023-06-14T22:57:00.900Z,19.64
2023-06-14T22:59:28.420Z,19.79
2023-06-14T23:01:55.213Z,19.61
2023-06-14T23:04:24.651Z,19.44
2023-06-14T23:06:54.438Z,19.32
2023-06-14T23:09:21.096Z,19.62
2023-06-14T23:11:47.705Z,19.24
2023-06-14T23:14:14.517Z,18.86
2023-06-14T23:16:41.730Z,18.55
2023-06-14T23:19:09.712Z,18.62
2023-06-14T23:21:37.027Z,18.83
2023-06-14T23:24:03.695Z,18.84
2023-06-14T23:26:30.204Z,19.12
2023-06-14T23:28:57.325Z,19.28
2023-06-14T23:31:24.294Z,19.19
2023-06-14T23:33:51.065Z,19.08
2023-06-14T23:36:17.882Z,18.91
2023-06-14T23:38:48.353Z,18.96
2023-06-14T23:41:17.841Z,18.95
2023-06-14T23:43:44.540Z,19.07
2023-06-14T23:46:11.130Z,18.90
2023-06-14T23:48:37.714Z,18.93
2023-06-14T23:51:04.351Z,18.81
2023-06-14T23:53:33.527Z,18.95
2023-06-14T23:56:01.973Z,19.15
2023-06-14T23:58:30.171Z,19.23
